Impacts METAR Board
IDs:

KATT - Austin/Camp Mabry(NG, TX, US

Updated at: 2300 UTC 29 May 2020
Potential Impact None Slight Moderate High
Time 29/11Z 29/12Z 29/13Z 29/14Z 29/15Z 29/16Z 29/17Z 29/18Z 29/19Z 29/20Z 29/21Z 29/22Z 29/23Z
Temp70 70 72 75 78 81 83 85 86 88 88 88 87
Dewpt66 66 65 64 63 64 62 62 60 58 57 55 54
Altim30.06 30.09 30.11 30.12 30.12 30.12 30.14 30.12 30.12 30.12 30.11 30.09 30.08
VIS10 10 10 10 10 10 10 10 10 10 10 10 10
CIG-- -- -- -- -- -- -- -- -- -- -- -- --
CoverCLRCLRCLRCLRCLRFEWCLRFEWCLRCLRCLRCLRCLR
FltCatVFRVFRVFRVFRVFRVFRVFRVFRVFRVFRVFRVFRVFR
WX--------------------------
WDir0036001020303005050030
WSpd3 4 3 6 7 6 9 5 6 5 7 6 8
WGst-- -- -- -- 18 -- 14 -- 15 17 17 21 16
Raw hourly METARs
KATT 291051Z AUTO VRB03KT 10SM CLR 21/19 A3006 RMK AO2 SLP168 T02110189
KATT 291151Z AUTO VRB04KT 10SM CLR 21/19 A3009 RMK AO2 SLP179 T02110189 10239 20211 53009
KATT 291251Z AUTO 36003KT 10SM CLR 22/18 A3011 RMK AO2 SLP184 T02220183
KATT 291351Z AUTO VRB06KT 10SM CLR 24/18 A3012 RMK AO2 SLP188 T02390178
KATT 291451Z AUTO 01007G18KT 10SM CLR 26/17 A3012 RMK AO2 SLP187 T02560172 51009
KATT 291551Z AUTO 02006KT 10SM FEW031 27/18 A3012 RMK AO2 SLP187 T02720178
KATT 291651Z AUTO 03009G14KT 10SM CLR 28/17 A3014 RMK AO2 SLP193 T02830167
KATT 291751Z AUTO 03005KT 10SM FEW043 29/17 A3012 RMK AO2 SLP186 T02940167 10294 20211 50000
KATT 291851Z AUTO VRB06G15KT 10SM CLR 30/16 A3012 RMK AO2 SLP188 T03000156
KATT 291951Z AUTO 05005G17KT 10SM CLR 31/14 A3012 RMK AO2 SLP186 T03110144
KATT 292051Z AUTO 05007G17KT 010V110 10SM CLR 31/14 A3011 RMK AO2 SLP184 T03110139 58002
KATT 292151Z AUTO VRB06G21KT 10SM CLR 31/13 A3009 RMK AO2 SLP177 T03110128
KATT 292251Z AUTO 03008G16KT 010V070 10SM CLR 31/12 A3008 RMK AO2 SLP174 T03060122